RYR7EC GMMN-LPPT
Flight info
| Callsign | RYR7EC |
|---|---|
| Flight time | 0h 57m |
| Altitude | 36000 |
| Route | LAKAM UR722 AMSEL DCT VATZI |
| Aircraft | B738/M-SDE2E3FGHIRWXY/LB1 |
Departure
| Time | 2026-05-07 19:39 |
|---|---|
| Airport | Mohammed V International Airport (GMMN) |
Arrival
| Time | 2026-05-07 20:36 |
|---|---|
| Airport | Lisbon Humberto Delgado Airport (LPPT) |
| Time | Latitude | Longitude | Altitude | Speed | Heading |
|---|---|---|---|---|---|
| 2026-05-07 19:16 | 33.36844 | -7.58074 | 647 ft | 0 kts | 73° |
| 2026-05-07 19:24 | 33.36842 | -7.58079 | 647 ft | 2 kts | 74° |
| 2026-05-07 19:24 | 33.36838 | -7.58096 | 647 ft | 2 kts | 73° |
| 2026-05-07 19:24 | 33.36834 | -7.58113 | 646 ft | 2 kts | 74° |
| 2026-05-07 19:24 | 33.36830 | -7.58130 | 645 ft | 2 kts | 76° |
| 2026-05-07 19:25 | 33.36832 | -7.58148 | 645 ft | 2 kts | 118° |
| 2026-05-07 19:25 | 33.36842 | -7.58162 | 644 ft | 2 kts | 150° |
| 2026-05-07 19:25 | 33.36848 | -7.58165 | 644 ft | 1 kts | 169° |
| 2026-05-07 19:25 | 33.36853 | -7.58167 | 644 ft | 0 kts | 164° |
| 2026-05-07 19:29 | 33.36842 | -7.58163 | 644 ft | 2 kts | 163° |
| 2026-05-07 19:29 | 33.36822 | -7.58156 | 644 ft | 2 kts | 163° |
| 2026-05-07 19:30 | 33.36800 | -7.58148 | 645 ft | 4 kts | 162° |
| 2026-05-07 19:30 | 33.36769 | -7.58137 | 646 ft | 5 kts | 163° |
| 2026-05-07 19:30 | 33.36733 | -7.58125 | 647 ft | 5 kts | 163° |
| 2026-05-07 19:30 | 33.36692 | -7.58111 | 648 ft | 6 kts | 163° |
| 2026-05-07 19:31 | 33.36659 | -7.58099 | 648 ft | 4 kts | 163° |
| 2026-05-07 19:31 | 33.36633 | -7.58090 | 649 ft | 3 kts | 163° |
| 2026-05-07 19:31 | 33.36605 | -7.58080 | 649 ft | 4 kts | 163° |
| 2026-05-07 19:31 | 33.36567 | -7.58074 | 649 ft | 6 kts | 184° |
| 2026-05-07 19:32 | 33.36512 | -7.58097 | 648 ft | 9 kts | 204° |
| 2026-05-07 19:32 | 33.36453 | -7.58129 | 648 ft | 9 kts | 202° |
| 2026-05-07 19:32 | 33.36396 | -7.58130 | 649 ft | 7 kts | 163° |
| 2026-05-07 19:32 | 33.36336 | -7.58109 | 650 ft | 10 kts | 163° |
| 2026-05-07 19:33 | 33.36273 | -7.58130 | 651 ft | 10 kts | 238° |
| 2026-05-07 19:33 | 33.36234 | -7.58227 | 650 ft | 13 kts | 218° |
| 2026-05-07 19:33 | 33.36144 | -7.58221 | 651 ft | 12 kts | 163° |
| 2026-05-07 19:33 | 33.36063 | -7.58193 | 652 ft | 10 kts | 164° |
| 2026-05-07 19:34 | 33.35996 | -7.58171 | 654 ft | 10 kts | 163° |
| 2026-05-07 19:34 | 33.35921 | -7.58145 | 654 ft | 12 kts | 163° |
| 2026-05-07 19:34 | 33.35831 | -7.58114 | 654 ft | 14 kts | 163° |
| 2026-05-07 19:34 | 33.35739 | -7.58082 | 654 ft | 13 kts | 163° |
| 2026-05-07 19:35 | 33.35642 | -7.58049 | 654 ft | 16 kts | 163° |
| 2026-05-07 19:35 | 33.35520 | -7.58007 | 657 ft | 19 kts | 164° |
| 2026-05-07 19:35 | 33.35395 | -7.57964 | 658 ft | 17 kts | 163° |
| 2026-05-07 19:35 | 33.35283 | -7.57956 | 658 ft | 15 kts | 209° |
| 2026-05-07 19:36 | 33.35237 | -7.58066 | 659 ft | 15 kts | 255° |
| 2026-05-07 19:36 | 33.35217 | -7.58155 | 658 ft | 8 kts | 255° |
| 2026-05-07 19:36 | 33.35222 | -7.58243 | 658 ft | 13 kts | 300° |
| 2026-05-07 19:36 | 33.35270 | -7.58282 | 657 ft | 2 kts | 342° |
| 2026-05-07 19:37 | 33.35273 | -7.58283 | 657 ft | 0 kts | 343° |
| 2026-05-07 19:37 | 33.35276 | -7.58284 | 658 ft | 0 kts | 343° |
| 2026-05-07 19:38 | 33.35279 | -7.58285 | 658 ft | 2 kts | 343° |
| 2026-05-07 19:38 | 33.35523 | -7.58369 | 657 ft | 82 kts | 343° |
| 2026-05-07 19:38 | 33.36341 | -7.58650 | 692 ft | 157 kts | 342° |
| 2026-05-07 19:39 | 33.37451 | -7.59050 | 1485 ft | 177 kts | 341° |
| 2026-05-07 19:39 | 33.38525 | -7.59682 | 2639 ft | 174 kts | 333° |
| 2026-05-07 19:39 | 33.39641 | -7.60318 | 3344 ft | 188 kts | 336° |
| 2026-05-07 19:39 | 33.40861 | -7.61024 | 3987 ft | 207 kts | 332° |
| 2026-05-07 19:40 | 33.42157 | -7.61984 | 4625 ft | 228 kts | 324° |
| 2026-05-07 19:40 | 33.43427 | -7.63210 | 4956 ft | 244 kts | 317° |
| 2026-05-07 19:40 | 33.44613 | -7.64685 | 4966 ft | 246 kts | 310° |
| 2026-05-07 19:40 | 33.45660 | -7.66292 | 4960 ft | 246 kts | 305° |
| 2026-05-07 19:41 | 33.46769 | -7.67922 | 4960 ft | 261 kts | 319° |
| 2026-05-07 19:41 | 33.48433 | -7.68815 | 4955 ft | 269 kts | 351° |
| 2026-05-07 19:41 | 33.50320 | -7.68855 | 4940 ft | 268 kts | 2° |
| 2026-05-07 19:41 | 33.52177 | -7.68746 | 4931 ft | 268 kts | 0° |
| 2026-05-07 19:42 | 33.54059 | -7.68741 | 4928 ft | 268 kts | 357° |
| 2026-05-07 19:42 | 33.55909 | -7.68842 | 4926 ft | 268 kts | 355° |
| 2026-05-07 19:42 | 33.57804 | -7.68990 | 5034 ft | 282 kts | 355° |
| 2026-05-07 19:42 | 33.59784 | -7.69155 | 6105 ft | 285 kts | 355° |
| 2026-05-07 19:43 | 33.61763 | -7.69316 | 7166 ft | 288 kts | 354° |
| 2026-05-07 19:43 | 33.63758 | -7.69476 | 8090 ft | 295 kts | 354° |
| 2026-05-07 19:43 | 33.65837 | -7.69641 | 9037 ft | 301 kts | 354° |
| 2026-05-07 19:43 | 33.67930 | -7.69805 | 9967 ft | 306 kts | 353° |
| 2026-05-07 19:44 | 33.70078 | -7.69977 | 10643 ft | 320 kts | 353° |
| 2026-05-07 19:44 | 33.72337 | -7.70159 | 11222 ft | 337 kts | 353° |
| 2026-05-07 19:44 | 33.74764 | -7.70353 | 11779 ft | 354 kts | 353° |
| 2026-05-07 19:44 | 33.77260 | -7.70553 | 12346 ft | 369 kts | 353° |
| 2026-05-07 19:45 | 33.79840 | -7.70756 | 13199 ft | 374 kts | 353° |
| 2026-05-07 19:45 | 33.82426 | -7.70960 | 13963 ft | 380 kts | 353° |
| 2026-05-07 19:45 | 33.85097 | -7.71168 | 14863 ft | 383 kts | 352° |
| 2026-05-07 19:45 | 33.87759 | -7.71378 | 15637 ft | 389 kts | 352° |
| 2026-05-07 19:46 | 33.90470 | -7.71592 | 16490 ft | 392 kts | 352° |
| 2026-05-07 19:46 | 33.93195 | -7.71807 | 17279 ft | 395 kts | 352° |
| 2026-05-07 19:46 | 33.95931 | -7.72025 | 18034 ft | 399 kts | 351° |
| 2026-05-07 19:46 | 33.98707 | -7.72246 | 18798 ft | 403 kts | 351° |
| 2026-05-07 19:47 | 34.01528 | -7.72472 | 19437 ft | 409 kts | 351° |
| 2026-05-07 19:47 | 34.04346 | -7.72699 | 20110 ft | 413 kts | 351° |
| 2026-05-07 19:47 | 34.07231 | -7.72929 | 20808 ft | 417 kts | 351° |
| 2026-05-07 19:47 | 34.10159 | -7.73162 | 21466 ft | 421 kts | 350° |
| 2026-05-07 19:48 | 34.13100 | -7.73398 | 22039 ft | 426 kts | 350° |
| 2026-05-07 19:48 | 34.16063 | -7.73634 | 22720 ft | 428 kts | 350° |
| 2026-05-07 19:48 | 34.19061 | -7.73874 | 23255 ft | 434 kts | 350° |
| 2026-05-07 19:48 | 34.22047 | -7.74101 | 23859 ft | 437 kts | 350° |
| 2026-05-07 19:49 | 34.25115 | -7.74320 | 24416 ft | 441 kts | 351° |
| 2026-05-07 19:49 | 34.28180 | -7.74528 | 25114 ft | 441 kts | 351° |
| 2026-05-07 19:49 | 34.31274 | -7.74739 | 25518 ft | 448 kts | 351° |
| 2026-05-07 19:49 | 34.34359 | -7.74947 | 26153 ft | 449 kts | 351° |
| 2026-05-07 19:50 | 34.37494 | -7.75157 | 26749 ft | 450 kts | 350° |
| 2026-05-07 19:50 | 34.40652 | -7.75374 | 27197 ft | 455 kts | 350° |
| 2026-05-07 19:50 | 34.43788 | -7.75589 | 27676 ft | 459 kts | 350° |
| 2026-05-07 19:50 | 34.47015 | -7.75812 | 28226 ft | 460 kts | 350° |
| 2026-05-07 19:51 | 34.50204 | -7.76034 | 28593 ft | 466 kts | 351° |
| 2026-05-07 19:51 | 34.53473 | -7.76262 | 29150 ft | 467 kts | 350° |
| 2026-05-07 19:51 | 34.56702 | -7.76487 | 29586 ft | 470 kts | 350° |
| 2026-05-07 19:51 | 34.59967 | -7.76713 | 30024 ft | 474 kts | 351° |
| 2026-05-07 19:52 | 34.63259 | -7.76944 | 30406 ft | 478 kts | 350° |
| 2026-05-07 19:52 | 34.66610 | -7.77177 | 30950 ft | 478 kts | 350° |
| 2026-05-07 19:52 | 34.69906 | -7.77408 | 31514 ft | 475 kts | 350° |
| 2026-05-07 19:52 | 34.73179 | -7.77632 | 32206 ft | 470 kts | 350° |
| 2026-05-07 19:53 | 34.76417 | -7.77859 | 32875 ft | 464 kts | 350° |
| 2026-05-07 19:53 | 34.79605 | -7.78105 | 33460 ft | 460 kts | 349° |
| 2026-05-07 19:53 | 34.82793 | -7.78365 | 34080 ft | 456 kts | 349° |
| 2026-05-07 19:53 | 34.85966 | -7.78628 | 34740 ft | 451 kts | 348° |
| 2026-05-07 19:54 | 34.89057 | -7.78888 | 35471 ft | 444 kts | 348° |
| 2026-05-07 19:54 | 34.92130 | -7.79145 | 35941 ft | 441 kts | 348° |
| 2026-05-07 19:54 | 34.98273 | -7.79678 | 35946 ft | 451 kts | 348° |
| 2026-05-07 19:55 | 35.04602 | -7.80231 | 35942 ft | 455 kts | 348° |
| 2026-05-07 19:55 | 35.10925 | -7.80770 | 35944 ft | 455 kts | 348° |
| 2026-05-07 19:56 | 35.17218 | -7.81299 | 35946 ft | 455 kts | 348° |
| 2026-05-07 19:56 | 35.23549 | -7.81826 | 35942 ft | 456 kts | 348° |
| 2026-05-07 19:57 | 35.29887 | -7.82360 | 35940 ft | 455 kts | 348° |
| 2026-05-07 19:57 | 35.36273 | -7.82900 | 35941 ft | 459 kts | 348° |
| 2026-05-07 19:58 | 35.42560 | -7.83427 | 35933 ft | 456 kts | 348° |
| 2026-05-07 19:58 | 35.48931 | -7.83994 | 35928 ft | 456 kts | 348° |
| 2026-05-07 19:59 | 35.55241 | -7.84567 | 35927 ft | 456 kts | 348° |
| 2026-05-07 19:59 | 35.61601 | -7.85147 | 35929 ft | 457 kts | 348° |
| 2026-05-07 20:00 | 35.67953 | -7.85721 | 35926 ft | 456 kts | 348° |
| 2026-05-07 20:00 | 35.74279 | -7.86296 | 35924 ft | 457 kts | 348° |
| 2026-05-07 20:01 | 35.80591 | -7.86877 | 35926 ft | 458 kts | 348° |
| 2026-05-07 20:01 | 35.86946 | -7.87454 | 35929 ft | 457 kts | 348° |
| 2026-05-07 20:02 | 35.93293 | -7.88091 | 35923 ft | 454 kts | 345° |
| 2026-05-07 20:02 | 35.99316 | -7.89823 | 35931 ft | 438 kts | 331° |
| 2026-05-07 20:03 | 36.04862 | -7.92835 | 35920 ft | 434 kts | 326° |
| 2026-05-07 20:03 | 36.10284 | -7.96132 | 35923 ft | 437 kts | 325° |
| 2026-05-07 20:04 | 36.15731 | -7.99441 | 35928 ft | 436 kts | 326° |
| 2026-05-07 20:04 | 36.21218 | -8.02732 | 36071 ft | 441 kts | 326° |
| 2026-05-07 20:05 | 36.23980 | -8.04379 | 36386 ft | 442 kts | 326° |
| 2026-05-07 20:05 | 36.26745 | -8.06023 | 36797 ft | 441 kts | 326° |
| 2026-05-07 20:05 | 36.29480 | -8.07645 | 37276 ft | 439 kts | 326° |
| 2026-05-07 20:05 | 36.32223 | -8.09269 | 37698 ft | 437 kts | 326° |
| 2026-05-07 20:06 | 36.34980 | -8.10901 | 37937 ft | 431 kts | 326° |
| 2026-05-07 20:06 | 36.37624 | -8.12457 | 37923 ft | 417 kts | 325° |
| 2026-05-07 20:06 | 36.40196 | -8.13967 | 37922 ft | 405 kts | 325° |
| 2026-05-07 20:06 | 36.42739 | -8.15469 | 37927 ft | 404 kts | 325° |
| 2026-05-07 20:07 | 36.47828 | -8.18520 | 37920 ft | 412 kts | 325° |
| 2026-05-07 20:07 | 36.53036 | -8.21647 | 37931 ft | 421 kts | 325° |
| 2026-05-07 20:08 | 36.58379 | -8.24847 | 37923 ft | 430 kts | 326° |
| 2026-05-07 20:08 | 36.63825 | -8.28105 | 37922 ft | 438 kts | 326° |
| 2026-05-07 20:09 | 36.69336 | -8.31399 | 37920 ft | 440 kts | 326° |
| 2026-05-07 20:10 | 36.77602 | -8.36348 | 37924 ft | 442 kts | 326° |
| 2026-05-07 20:10 | 36.83168 | -8.39691 | 37861 ft | 440 kts | 326° |
| 2026-05-07 20:10 | 36.85892 | -8.41319 | 37675 ft | 430 kts | 326° |
| 2026-05-07 20:11 | 36.88562 | -8.42914 | 37287 ft | 424 kts | 326° |
| 2026-05-07 20:11 | 36.91198 | -8.44494 | 36799 ft | 419 kts | 326° |
| 2026-05-07 20:11 | 36.93799 | -8.46061 | 36231 ft | 417 kts | 326° |
| 2026-05-07 20:11 | 36.96444 | -8.47662 | 35636 ft | 419 kts | 326° |
| 2026-05-07 20:12 | 36.99057 | -8.49247 | 34980 ft | 420 kts | 326° |
| 2026-05-07 20:12 | 37.01678 | -8.50839 | 34320 ft | 421 kts | 326° |
| 2026-05-07 20:12 | 37.04324 | -8.52448 | 33888 ft | 433 kts | 327° |
| 2026-05-07 20:12 | 37.07061 | -8.54123 | 33390 ft | 442 kts | 327° |
| 2026-05-07 20:13 | 37.09827 | -8.55808 | 32850 ft | 442 kts | 327° |
| 2026-05-07 20:13 | 37.12579 | -8.57472 | 32303 ft | 439 kts | 328° |
| 2026-05-07 20:13 | 37.15325 | -8.59130 | 31760 ft | 435 kts | 328° |
| 2026-05-07 20:13 | 37.18042 | -8.60772 | 31215 ft | 432 kts | 328° |
| 2026-05-07 20:14 | 37.20718 | -8.62388 | 30681 ft | 429 kts | 328° |
| 2026-05-07 20:14 | 37.23396 | -8.64011 | 30144 ft | 425 kts | 328° |
| 2026-05-07 20:14 | 37.26059 | -8.65625 | 29614 ft | 422 kts | 328° |
| 2026-05-07 20:14 | 37.28690 | -8.67225 | 29082 ft | 420 kts | 328° |
| 2026-05-07 20:15 | 37.31299 | -8.68813 | 28553 ft | 417 kts | 328° |
| 2026-05-07 20:15 | 37.33886 | -8.70392 | 28028 ft | 414 kts | 328° |
| 2026-05-07 20:15 | 37.36486 | -8.71979 | 27504 ft | 412 kts | 328° |
| 2026-05-07 20:15 | 37.39020 | -8.73528 | 26989 ft | 409 kts | 328° |
| 2026-05-07 20:16 | 37.41569 | -8.75089 | 26462 ft | 407 kts | 328° |
| 2026-05-07 20:16 | 37.44101 | -8.76641 | 25951 ft | 404 kts | 328° |
| 2026-05-07 20:16 | 37.46619 | -8.78187 | 25433 ft | 401 kts | 328° |
| 2026-05-07 20:16 | 37.49128 | -8.79732 | 24916 ft | 399 kts | 328° |
| 2026-05-07 20:17 | 37.51597 | -8.81250 | 24408 ft | 397 kts | 328° |
| 2026-05-07 20:17 | 37.54069 | -8.82768 | 23904 ft | 394 kts | 328° |
| 2026-05-07 20:17 | 37.56532 | -8.84280 | 23394 ft | 392 kts | 328° |
| 2026-05-07 20:17 | 37.58975 | -8.85758 | 22902 ft | 391 kts | 329° |
| 2026-05-07 20:18 | 37.61492 | -8.87082 | 22396 ft | 393 kts | 334° |
| 2026-05-07 20:18 | 37.64031 | -8.88200 | 21899 ft | 393 kts | 337° |
| 2026-05-07 20:18 | 37.66650 | -8.89252 | 21379 ft | 393 kts | 338° |
| 2026-05-07 20:18 | 37.69273 | -8.90275 | 20858 ft | 392 kts | 338° |
| 2026-05-07 20:19 | 37.71849 | -8.91280 | 20357 ft | 391 kts | 338° |
| 2026-05-07 20:19 | 37.74452 | -8.92305 | 19840 ft | 391 kts | 339° |
| 2026-05-07 20:19 | 37.77035 | -8.93334 | 19327 ft | 389 kts | 338° |
| 2026-05-07 20:19 | 37.79617 | -8.94372 | 18814 ft | 388 kts | 338° |
| 2026-05-07 20:20 | 37.82181 | -8.95408 | 18309 ft | 387 kts | 339° |
| 2026-05-07 20:20 | 37.84748 | -8.96451 | 17785 ft | 386 kts | 339° |
| 2026-05-07 20:20 | 37.87302 | -8.97492 | 17272 ft | 384 kts | 339° |
| 2026-05-07 20:20 | 37.89823 | -8.98522 | 16766 ft | 382 kts | 339° |
| 2026-05-07 20:21 | 37.92343 | -8.99553 | 16267 ft | 380 kts | 340° |
| 2026-05-07 20:21 | 37.94846 | -9.00458 | 16069 ft | 369 kts | 344° |
| 2026-05-07 20:21 | 37.97310 | -9.01132 | 15961 ft | 356 kts | 347° |
| 2026-05-07 20:21 | 37.99709 | -9.01694 | 15686 ft | 350 kts | 348° |
| 2026-05-07 20:22 | 38.02104 | -9.02244 | 15268 ft | 348 kts | 348° |
| 2026-05-07 20:22 | 38.04486 | -9.02811 | 14912 ft | 344 kts | 348° |
| 2026-05-07 20:22 | 38.06809 | -9.03387 | 14417 ft | 340 kts | 348° |
| 2026-05-07 20:22 | 38.09097 | -9.03969 | 13876 ft | 337 kts | 348° |
| 2026-05-07 20:23 | 38.11402 | -9.04565 | 13364 ft | 332 kts | 348° |
| 2026-05-07 20:23 | 38.13631 | -9.05145 | 12895 ft | 326 kts | 348° |
| 2026-05-07 20:23 | 38.15796 | -9.05710 | 12676 ft | 312 kts | 348° |
| 2026-05-07 20:23 | 38.17874 | -9.06253 | 12513 ft | 298 kts | 348° |
| 2026-05-07 20:24 | 38.19878 | -9.06776 | 12365 ft | 285 kts | 347° |
| 2026-05-07 20:24 | 38.21790 | -9.07277 | 11980 ft | 282 kts | 348° |
| 2026-05-07 20:24 | 38.23706 | -9.07779 | 11544 ft | 282 kts | 347° |
| 2026-05-07 20:24 | 38.25616 | -9.08280 | 11176 ft | 279 kts | 347° |
| 2026-05-07 20:25 | 38.27517 | -9.08777 | 10765 ft | 278 kts | 347° |
| 2026-05-07 20:25 | 38.29390 | -9.09267 | 10406 ft | 275 kts | 347° |
| 2026-05-07 20:25 | 38.31250 | -9.09878 | 9984 ft | 273 kts | 338° |
| 2026-05-07 20:25 | 38.32839 | -9.11093 | 9572 ft | 267 kts | 310° |
| 2026-05-07 20:26 | 38.33733 | -9.13079 | 9171 ft | 257 kts | 281° |
| 2026-05-07 20:26 | 38.33902 | -9.15286 | 8764 ft | 249 kts | 263° |
| 2026-05-07 20:26 | 38.33689 | -9.17450 | 8383 ft | 245 kts | 256° |
| 2026-05-07 20:26 | 38.33350 | -9.19581 | 8050 ft | 245 kts | 254° |
| 2026-05-07 20:27 | 38.33001 | -9.21667 | 7789 ft | 243 kts | 255° |
| 2026-05-07 20:27 | 38.32737 | -9.23809 | 7503 ft | 244 kts | 264° |
| 2026-05-07 20:27 | 38.32908 | -9.25944 | 7230 ft | 246 kts | 278° |
| 2026-05-07 20:27 | 38.33301 | -9.28062 | 6978 ft | 244 kts | 280° |
| 2026-05-07 20:28 | 38.33720 | -9.30128 | 6917 ft | 244 kts | 287° |
| 2026-05-07 20:28 | 38.34681 | -9.31955 | 6700 ft | 254 kts | 320° |
| 2026-05-07 20:28 | 38.36280 | -9.32852 | 6465 ft | 256 kts | 351° |
| 2026-05-07 20:28 | 38.38051 | -9.32743 | 6214 ft | 253 kts | 13° |
| 2026-05-07 20:29 | 38.39722 | -9.32112 | 5966 ft | 252 kts | 19° |
| 2026-05-07 20:29 | 38.41366 | -9.31394 | 5714 ft | 250 kts | 19° |
| 2026-05-07 20:29 | 38.43021 | -9.30668 | 5450 ft | 247 kts | 19° |
| 2026-05-07 20:29 | 38.44618 | -9.29977 | 5196 ft | 241 kts | 18° |
| 2026-05-07 20:30 | 38.46194 | -9.29300 | 4947 ft | 237 kts | 18° |
| 2026-05-07 20:30 | 38.47766 | -9.28628 | 4678 ft | 236 kts | 18° |
| 2026-05-07 20:30 | 38.49310 | -9.27969 | 4429 ft | 235 kts | 18° |
| 2026-05-07 20:30 | 38.50857 | -9.27307 | 4180 ft | 234 kts | 18° |
| 2026-05-07 20:31 | 38.52401 | -9.26646 | 3977 ft | 231 kts | 17° |
| 2026-05-07 20:31 | 38.53880 | -9.26010 | 3966 ft | 219 kts | 17° |
| 2026-05-07 20:31 | 38.55312 | -9.25395 | 3970 ft | 215 kts | 17° |
| 2026-05-07 20:31 | 38.56730 | -9.24789 | 3969 ft | 216 kts | 17° |
| 2026-05-07 20:32 | 38.58154 | -9.24155 | 3969 ft | 215 kts | 19° |
| 2026-05-07 20:32 | 38.59541 | -9.23453 | 3953 ft | 210 kts | 21° |
| 2026-05-07 20:32 | 38.60874 | -9.22746 | 3732 ft | 209 kts | 21° |
| 2026-05-07 20:32 | 38.62214 | -9.22037 | 3467 ft | 208 kts | 21° |
| 2026-05-07 20:33 | 38.63553 | -9.21330 | 3153 ft | 207 kts | 20° |
| 2026-05-07 20:33 | 38.64850 | -9.20641 | 2871 ft | 194 kts | 20° |
| 2026-05-07 20:33 | 38.66045 | -9.20006 | 2609 ft | 181 kts | 20° |
| 2026-05-07 20:33 | 38.67172 | -9.19407 | 2373 ft | 169 kts | 20° |
| 2026-05-07 20:34 | 38.68252 | -9.18834 | 2144 ft | 166 kts | 19° |
| 2026-05-07 20:34 | 38.69317 | -9.18269 | 1922 ft | 165 kts | 19° |
| 2026-05-07 20:34 | 38.70347 | -9.17721 | 1694 ft | 157 kts | 19° |
| 2026-05-07 20:34 | 38.71319 | -9.17202 | 1510 ft | 145 kts | 19° |
| 2026-05-07 20:35 | 38.72223 | -9.16721 | 1309 ft | 137 kts | 19° |
| 2026-05-07 20:35 | 38.73099 | -9.16256 | 1140 ft | 135 kts | 19° |
| 2026-05-07 20:35 | 38.73956 | -9.15801 | 968 ft | 135 kts | 17° |
| 2026-05-07 20:35 | 38.74831 | -9.15340 | 757 ft | 134 kts | 19° |
| 2026-05-07 20:36 | 38.75701 | -9.14880 | 599 ft | 135 kts | 18° |
| 2026-05-07 20:36 | 38.76577 | -9.14421 | 399 ft | 136 kts | 18° |
| 2026-05-07 20:36 | 38.77398 | -9.13981 | 354 ft | 117 kts | 20° |
| 2026-05-07 20:36 | 38.77933 | -9.13697 | 361 ft | 49 kts | 23° |
| 2026-05-07 20:37 | 38.78219 | -9.13535 | 360 ft | 40 kts | 34° |
| 2026-05-07 20:37 | 38.78339 | -9.13397 | 356 ft | 13 kts | 47° |
| 2026-05-07 20:37 | 38.78374 | -9.13296 | 351 ft | 7 kts | 108° |
| 2026-05-07 20:37 | 38.78323 | -9.13263 | 348 ft | 11 kts | 193° |
| 2026-05-07 20:38 | 38.78251 | -9.13299 | 347 ft | 11 kts | 204° |
| 2026-05-07 20:38 | 38.78180 | -9.13339 | 346 ft | 11 kts | 205° |
| 2026-05-07 20:38 | 38.78109 | -9.13380 | 346 ft | 10 kts | 199° |
| 2026-05-07 20:38 | 38.78064 | -9.13400 | 346 ft | 3 kts | 200° |
| 2026-05-07 20:39 | 38.78038 | -9.13412 | 345 ft | 4 kts | 202° |
| 2026-05-07 20:39 | 38.77995 | -9.13435 | 345 ft | 13 kts | 204° |
| 2026-05-07 20:39 | 38.77904 | -9.13484 | 346 ft | 13 kts | 202° |
| 2026-05-07 20:39 | 38.77819 | -9.13530 | 347 ft | 12 kts | 203° |
| 2026-05-07 20:40 | 38.77738 | -9.13574 | 346 ft | 12 kts | 204° |
| 2026-05-07 20:40 | 38.77657 | -9.13619 | 346 ft | 12 kts | 203° |
| 2026-05-07 20:40 | 38.77578 | -9.13661 | 345 ft | 12 kts | 202° |
| 2026-05-07 20:40 | 38.77498 | -9.13703 | 345 ft | 12 kts | 202° |
| 2026-05-07 20:41 | 38.77419 | -9.13742 | 345 ft | 11 kts | 202° |
| 2026-05-07 20:41 | 38.77342 | -9.13783 | 344 ft | 12 kts | 203° |
| 2026-05-07 20:41 | 38.77268 | -9.13826 | 344 ft | 11 kts | 207° |
| 2026-05-07 20:41 | 38.77197 | -9.13868 | 344 ft | 11 kts | 203° |
| 2026-05-07 20:42 | 38.77122 | -9.13900 | 344 ft | 11 kts | 185° |
| 2026-05-07 20:42 | 38.77047 | -9.13882 | 343 ft | 11 kts | 169° |
| 2026-05-07 20:42 | 38.76970 | -9.13864 | 342 ft | 12 kts | 169° |
| 2026-05-07 20:42 | 38.76886 | -9.13843 | 340 ft | 13 kts | 169° |
| 2026-05-07 20:43 | 38.76796 | -9.13820 | 339 ft | 13 kts | 169° |
| 2026-05-07 20:43 | 38.76718 | -9.13799 | 339 ft | 13 kts | 168° |
| 2026-05-07 20:43 | 38.76633 | -9.13774 | 340 ft | 10 kts | 146° |
| 2026-05-07 20:43 | 38.76598 | -9.13679 | 340 ft | 14 kts | 147° |
| 2026-05-07 20:44 | 38.76523 | -9.13623 | 341 ft | 3 kts | 169° |
| 2026-05-07 20:44 | 38.76499 | -9.13617 | 341 ft | 3 kts | 169° |
| 2026-05-07 20:44 | 38.76489 | -9.13615 | 341 ft | 0 kts | 170° |